sensor_id;sensor_type;location;lat;lon;timestamp;P1;durP1;ratioP1;P2;durP2;ratioP2
79646;SDS011;69119;41.718;21.786;2024-01-30T00:01:55;34.30;;;17.70;;
79646;SDS011;69119;41.718;21.786;2024-01-30T00:04:21;34.85;;;19.85;;
79646;SDS011;69119;41.718;21.786;2024-01-30T00:06:47;20.60;;;14.35;;
79646;SDS011;69119;41.718;21.786;2024-01-30T00:09:13;77.90;;;32.67;;
79646;SDS011;69119;41.718;21.786;2024-01-30T00:11:40;56.00;;;29.98;;
79646;SDS011;69119;41.718;21.786;2024-01-30T00:14:06;37.28;;;22.25;;
79646;SDS011;69119;41.718;21.786;2024-01-30T00:16:32;33.10;;;17.25;;
79646;SDS011;69119;41.718;21.786;2024-01-30T00:18:59;24.13;;;14.32;;
79646;SDS011;69119;41.718;21.786;2024-01-30T00:21:27;42.33;;;20.55;;
79646;SDS011;69119;41.718;21.786;2024-01-30T00:23:53;34.28;;;19.10;;
79646;SDS011;69119;41.718;21.786;2024-01-30T00:26:19;44.42;;;25.85;;
79646;SDS011;69119;41.718;21.786;2024-01-30T00:28:45;39.85;;;22.20;;
79646;SDS011;69119;41.718;21.786;2024-01-30T00:31:12;37.53;;;21.95;;
79646;SDS011;69119;41.718;21.786;2024-01-30T00:33:38;37.78;;;22.52;;
79646;SDS011;69119;41.718;21.786;2024-01-30T00:36:05;40.72;;;22.35;;
79646;SDS011;69119;41.718;21.786;2024-01-30T00:38:34;36.72;;;21.23;;
79646;SDS011;69119;41.718;21.786;2024-01-30T00:41:00;32.15;;;18.02;;
79646;SDS011;69119;41.718;21.786;2024-01-30T00:43:30;33.28;;;19.20;;
79646;SDS011;69119;41.718;21.786;2024-01-30T00:45:56;34.13;;;20.13;;
79646;SDS011;69119;41.718;21.786;2024-01-30T00:48:23;35.22;;;20.27;;
79646;SDS011;69119;41.718;21.786;2024-01-30T00:50:49;34.78;;;21.73;;
79646;SDS011;69119;41.718;21.786;2024-01-30T00:53:15;35.55;;;19.50;;
79646;SDS011;69119;41.718;21.786;2024-01-30T00:55:41;34.83;;;17.70;;
79646;SDS011;69119;41.718;21.786;2024-01-30T00:58:07;30.88;;;17.63;;
79646;SDS011;69119;41.718;21.786;2024-01-30T01:00:33;33.30;;;18.80;;
79646;SDS011;69119;41.718;21.786;2024-01-30T01:03:00;33.40;;;19.20;;
79646;SDS011;69119;41.718;21.786;2024-01-30T01:05:26;31.98;;;19.48;;
79646;SDS011;69119;41.718;21.786;2024-01-30T01:07:52;31.27;;;17.65;;
79646;SDS011;69119;41.718;21.786;2024-01-30T01:10:18;35.67;;;19.73;;
79646;SDS011;69119;41.718;21.786;2024-01-30T01:12:45;33.53;;;19.40;;
79646;SDS011;69119;41.718;21.786;2024-01-30T01:15:11;33.25;;;18.45;;
79646;SDS011;69119;41.718;21.786;2024-01-30T01:17:37;32.13;;;18.70;;
79646;SDS011;69119;41.718;21.786;2024-01-30T01:20:04;29.10;;;18.52;;
79646;SDS011;69119;41.718;21.786;2024-01-30T01:22:31;29.65;;;16.95;;
79646;SDS011;69119;41.718;21.786;2024-01-30T01:24:58;30.45;;;16.35;;
79646;SDS011;69119;41.718;21.786;2024-01-30T01:27:24;27.02;;;16.98;;
79646;SDS011;69119;41.718;21.786;2024-01-30T01:29:50;31.35;;;16.95;;
79646;SDS011;69119;41.718;21.786;2024-01-30T01:32:17;28.73;;;16.95;;
79646;SDS011;69119;41.718;21.786;2024-01-30T01:34:43;22.95;;;12.60;;
79646;SDS011;69119;41.718;21.786;2024-01-30T01:37:09;28.13;;;16.63;;
79646;SDS011;69119;41.718;21.786;2024-01-30T01:39:35;31.02;;;17.92;;
79646;SDS011;69119;41.718;21.786;2024-01-30T01:42:01;25.92;;;16.85;;
79646;SDS011;69119;41.718;21.786;2024-01-30T01:44:27;24.25;;;15.32;;
79646;SDS011;69119;41.718;21.786;2024-01-30T01:46:54;25.63;;;15.80;;
79646;SDS011;69119;41.718;21.786;2024-01-30T01:49:24;25.63;;;15.27;;
79646;SDS011;69119;41.718;21.786;2024-01-30T01:51:51;24.52;;;13.95;;
79646;SDS011;69119;41.718;21.786;2024-01-30T01:54:18;22.08;;;13.98;;
79646;SDS011;69119;41.718;21.786;2024-01-30T01:56:44;22.15;;;13.43;;
79646;SDS011;69119;41.718;21.786;2024-01-30T01:59:11;22.17;;;13.07;;
79646;SDS011;69119;41.718;21.786;2024-01-30T02:01:37;21.27;;;12.10;;
79646;SDS011;69119;41.718;21.786;2024-01-30T02:04:04;19.23;;;11.48;;
79646;SDS011;69119;41.718;21.786;2024-01-30T02:06:30;20.50;;;11.90;;
79646;SDS011;69119;41.718;21.786;2024-01-30T02:08:57;21.92;;;14.48;;
79646;SDS011;69119;41.718;21.786;2024-01-30T02:11:23;32.00;;;18.52;;
79646;SDS011;69119;41.718;21.786;2024-01-30T02:13:49;32.03;;;19.80;;
79646;SDS011;69119;41.718;21.786;2024-01-30T02:16:16;30.17;;;17.13;;
79646;SDS011;69119;41.718;21.786;2024-01-30T02:18:42;27.65;;;13.75;;
79646;SDS011;69119;41.718;21.786;2024-01-30T02:21:12;26.92;;;16.20;;
79646;SDS011;69119;41.718;21.786;2024-01-30T02:23:39;26.88;;;20.52;;
79646;SDS011;69119;41.718;21.786;2024-01-30T02:26:06;25.15;;;15.48;;
79646;SDS011;69119;41.718;21.786;2024-01-30T02:28:32;22.75;;;13.90;;
79646;SDS011;69119;41.718;21.786;2024-01-30T02:30:58;25.55;;;14.65;;
79646;SDS011;69119;41.718;21.786;2024-01-30T02:33:24;25.27;;;15.48;;
79646;SDS011;69119;41.718;21.786;2024-01-30T02:35:50;22.17;;;11.35;;
79646;SDS011;69119;41.718;21.786;2024-01-30T02:38:16;25.40;;;15.13;;
79646;SDS011;69119;41.718;21.786;2024-01-30T02:40:42;26.58;;;13.10;;
79646;SDS011;69119;41.718;21.786;2024-01-30T02:43:09;28.02;;;18.05;;
79646;SDS011;69119;41.718;21.786;2024-01-30T02:45:35;34.25;;;22.13;;
79646;SDS011;69119;41.718;21.786;2024-01-30T02:48:01;29.02;;;17.73;;
79646;SDS011;69119;41.718;21.786;2024-01-30T02:50:27;31.90;;;17.38;;
79646;SDS011;69119;41.718;21.786;2024-01-30T02:52:53;24.15;;;16.58;;
79646;SDS011;69119;41.718;21.786;2024-01-30T02:55:19;27.73;;;17.58;;
79646;SDS011;69119;41.718;21.786;2024-01-30T02:57:45;27.52;;;17.17;;
79646;SDS011;69119;41.718;21.786;2024-01-30T03:00:11;26.42;;;16.23;;
79646;SDS011;69119;41.718;21.786;2024-01-30T03:02:38;26.67;;;15.82;;
79646;SDS011;69119;41.718;21.786;2024-01-30T03:05:05;26.25;;;16.48;;
79646;SDS011;69119;41.718;21.786;2024-01-30T03:07:32;33.58;;;18.20;;
79646;SDS011;69119;41.718;21.786;2024-01-30T03:09:59;29.55;;;16.63;;
79646;SDS011;69119;41.718;21.786;2024-01-30T03:12:25;28.05;;;17.35;;
79646;SDS011;69119;41.718;21.786;2024-01-30T03:14:51;25.35;;;15.60;;
79646;SDS011;69119;41.718;21.786;2024-01-30T03:17:17;30.90;;;17.27;;
79646;SDS011;69119;41.718;21.786;2024-01-30T03:19:43;22.92;;;13.93;;
79646;SDS011;69119;41.718;21.786;2024-01-30T03:22:09;21.35;;;13.88;;
79646;SDS011;69119;41.718;21.786;2024-01-30T03:24:36;30.38;;;13.63;;
79646;SDS011;69119;41.718;21.786;2024-01-30T03:27:02;24.38;;;11.35;;
79646;SDS011;69119;41.718;21.786;2024-01-30T03:29:28;24.30;;;14.55;;
79646;SDS011;69119;41.718;21.786;2024-01-30T03:31:54;22.65;;;13.63;;
79646;SDS011;69119;41.718;21.786;2024-01-30T03:34:20;22.23;;;13.45;;
79646;SDS011;69119;41.718;21.786;2024-01-30T03:36:46;25.23;;;14.13;;
79646;SDS011;69119;41.718;21.786;2024-01-30T03:39:12;31.17;;;15.95;;
79646;SDS011;69119;41.718;21.786;2024-01-30T03:41:41;30.17;;;16.05;;
79646;SDS011;69119;41.718;21.786;2024-01-30T03:44:08;36.42;;;16.88;;
79646;SDS011;69119;41.718;21.786;2024-01-30T03:46:34;38.55;;;18.35;;
79646;SDS011;69119;41.718;21.786;2024-01-30T03:49:00;35.88;;;17.95;;
79646;SDS011;69119;41.718;21.786;2024-01-30T03:51:26;34.42;;;19.73;;
79646;SDS011;69119;41.718;21.786;2024-01-30T03:53:52;30.63;;;15.20;;
79646;SDS011;69119;41.718;21.786;2024-01-30T03:56:18;24.52;;;15.32;;
79646;SDS011;69119;41.718;21.786;2024-01-30T03:58:44;21.85;;;14.20;;
79646;SDS011;69119;41.718;21.786;2024-01-30T04:01:16;22.02;;;14.18;;
79646;SDS011;69119;41.718;21.786;2024-01-30T04:03:42;22.75;;;12.93;;
79646;SDS011;69119;41.718;21.786;2024-01-30T04:06:09;14.85;;;8.38;;
79646;SDS011;69119;41.718;21.786;2024-01-30T04:08:35;21.85;;;12.27;;
79646;SDS011;69119;41.718;21.786;2024-01-30T04:11:05;22.58;;;11.90;;
79646;SDS011;69119;41.718;21.786;2024-01-30T04:13:31;16.85;;;11.55;;
79646;SDS011;69119;41.718;21.786;2024-01-30T04:15:59;9.70;;;6.88;;
79646;SDS011;69119;41.718;21.786;2024-01-30T04:21:30;17.95;;;11.77;;
79646;SDS011;69119;41.718;21.786;2024-01-30T04:23:56;17.70;;;11.35;;
79646;SDS011;69119;41.718;21.786;2024-01-30T04:26:22;17.55;;;9.23;;
79646;SDS011;69119;41.718;21.786;2024-01-30T04:28:48;18.50;;;11.32;;
79646;SDS011;69119;41.718;21.786;2024-01-30T04:31:14;18.55;;;12.50;;
79646;SDS011;69119;41.718;21.786;2024-01-30T04:33:40;20.38;;;12.15;;
79646;SDS011;69119;41.718;21.786;2024-01-30T04:36:08;16.75;;;11.82;;
79646;SDS011;69119;41.718;21.786;2024-01-30T04:38:40;18.80;;;12.23;;
79646;SDS011;69119;41.718;21.786;2024-01-30T04:41:06;18.63;;;11.90;;
79646;SDS011;69119;41.718;21.786;2024-01-30T04:43:32;18.73;;;11.55;;
79646;SDS011;69119;41.718;21.786;2024-01-30T04:45:58;26.23;;;14.00;;
79646;SDS011;69119;41.718;21.786;2024-01-30T04:48:24;28.55;;;17.45;;
79646;SDS011;69119;41.718;21.786;2024-01-30T04:50:51;34.55;;;19.50;;
79646;SDS011;69119;41.718;21.786;2024-01-30T04:53:17;35.90;;;19.42;;
79646;SDS011;69119;41.718;21.786;2024-01-30T04:55:44;30.92;;;18.55;;
79646;SDS011;69119;41.718;21.786;2024-01-30T04:58:10;81.75;;;34.47;;
79646;SDS011;69119;41.718;21.786;2024-01-30T05:00:36;19.10;;;12.45;;
79646;SDS011;69119;41.718;21.786;2024-01-30T05:03:02;32.60;;;17.50;;
79646;SDS011;69119;41.718;21.786;2024-01-30T05:05:28;29.92;;;14.65;;
79646;SDS011;69119;41.718;21.786;2024-01-30T05:07:54;22.85;;;13.93;;
79646;SDS011;69119;41.718;21.786;2024-01-30T05:10:20;24.13;;;12.95;;
79646;SDS011;69119;41.718;21.786;2024-01-30T05:12:46;27.25;;;15.13;;
79646;SDS011;69119;41.718;21.786;2024-01-30T05:15:12;30.80;;;13.90;;
79646;SDS011;69119;41.718;21.786;2024-01-30T05:17:38;45.58;;;25.77;;
79646;SDS011;69119;41.718;21.786;2024-01-30T05:20:05;41.80;;;25.23;;
79646;SDS011;69119;41.718;21.786;2024-01-30T05:22:31;40.92;;;26.20;;
79646;SDS011;69119;41.718;21.786;2024-01-30T05:24:57;41.17;;;21.55;;
79646;SDS011;69119;41.718;21.786;2024-01-30T05:27:23;25.90;;;14.45;;
79646;SDS011;69119;41.718;21.786;2024-01-30T05:29:49;26.92;;;18.63;;
79646;SDS011;69119;41.718;21.786;2024-01-30T05:32:15;27.05;;;13.80;;
79646;SDS011;69119;41.718;21.786;2024-01-30T05:34:41;35.38;;;19.52;;
79646;SDS011;69119;41.718;21.786;2024-01-30T05:37:07;31.17;;;18.08;;
79646;SDS011;69119;41.718;21.786;2024-01-30T05:39:34;31.52;;;16.95;;
79646;SDS011;69119;41.718;21.786;2024-01-30T05:42:00;28.15;;;16.33;;
79646;SDS011;69119;41.718;21.786;2024-01-30T05:44:26;38.70;;;20.48;;
79646;SDS011;69119;41.718;21.786;2024-01-30T05:46:52;31.05;;;17.27;;
79646;SDS011;69119;41.718;21.786;2024-01-30T05:49:19;30.75;;;16.77;;
79646;SDS011;69119;41.718;21.786;2024-01-30T05:51:45;32.35;;;16.77;;
79646;SDS011;69119;41.718;21.786;2024-01-30T05:54:11;34.83;;;19.83;;
79646;SDS011;69119;41.718;21.786;2024-01-30T05:56:37;36.25;;;20.00;;
79646;SDS011;69119;41.718;21.786;2024-01-30T05:59:03;38.88;;;21.33;;
79646;SDS011;69119;41.718;21.786;2024-01-30T06:01:29;47.05;;;22.27;;
79646;SDS011;69119;41.718;21.786;2024-01-30T06:03:55;36.20;;;19.02;;
79646;SDS011;69119;41.718;21.786;2024-01-30T06:06:21;37.40;;;18.00;;
79646;SDS011;69119;41.718;21.786;2024-01-30T06:08:47;34.08;;;17.08;;
79646;SDS011;69119;41.718;21.786;2024-01-30T06:11:13;31.35;;;14.50;;
79646;SDS011;69119;41.718;21.786;2024-01-30T06:13:39;44.80;;;23.15;;
79646;SDS011;69119;41.718;21.786;2024-01-30T06:16:08;47.15;;;23.63;;
79646;SDS011;69119;41.718;21.786;2024-01-30T06:18:34;45.35;;;24.00;;
79646;SDS011;69119;41.718;21.786;2024-01-30T06:21:00;36.25;;;18.80;;
79646;SDS011;69119;41.718;21.786;2024-01-30T06:23:27;29.67;;;14.90;;
79646;SDS011;69119;41.718;21.786;2024-01-30T06:25:53;31.48;;;19.05;;
79646;SDS011;69119;41.718;21.786;2024-01-30T06:28:19;39.05;;;16.75;;
79646;SDS011;69119;41.718;21.786;2024-01-30T06:30:47;45.03;;;23.35;;
79646;SDS011;69119;41.718;21.786;2024-01-30T06:33:13;48.13;;;23.10;;
79646;SDS011;69119;41.718;21.786;2024-01-30T06:35:40;126.13;;;51.30;;
79646;SDS011;69119;41.718;21.786;2024-01-30T06:38:06;110.07;;;47.13;;
79646;SDS011;69119;41.718;21.786;2024-01-30T06:40:32;64.85;;;32.38;;
79646;SDS011;69119;41.718;21.786;2024-01-30T06:42:58;83.22;;;38.58;;
79646;SDS011;69119;41.718;21.786;2024-01-30T06:45:24;42.53;;;20.40;;
79646;SDS011;69119;41.718;21.786;2024-01-30T06:47:50;26.27;;;15.68;;
79646;SDS011;69119;41.718;21.786;2024-01-30T06:50:16;39.53;;;21.73;;
79646;SDS011;69119;41.718;21.786;2024-01-30T06:52:42;38.38;;;18.58;;
79646;SDS011;69119;41.718;21.786;2024-01-30T06:55:09;39.75;;;19.70;;
79646;SDS011;69119;41.718;21.786;2024-01-30T06:57:35;52.55;;;23.63;;
79646;SDS011;69119;41.718;21.786;2024-01-30T07:00:03;58.40;;;33.75;;
79646;SDS011;69119;41.718;21.786;2024-01-30T07:02:29;44.17;;;27.08;;
79646;SDS011;69119;41.718;21.786;2024-01-30T07:04:56;52.83;;;26.50;;
79646;SDS011;69119;41.718;21.786;2024-01-30T07:07:22;73.78;;;37.95;;
79646;SDS011;69119;41.718;21.786;2024-01-30T07:09:49;59.75;;;31.27;;
79646;SDS011;69119;41.718;21.786;2024-01-30T07:12:22;47.65;;;27.63;;
79646;SDS011;69119;41.718;21.786;2024-01-30T07:14:50;39.50;;;23.63;;
79646;SDS011;69119;41.718;21.786;2024-01-30T07:17:17;45.40;;;25.15;;
79646;SDS011;69119;41.718;21.786;2024-01-30T07:19:43;37.58;;;22.08;;
79646;SDS011;69119;41.718;21.786;2024-01-30T07:22:09;33.30;;;22.60;;
79646;SDS011;69119;41.718;21.786;2024-01-30T07:24:35;40.50;;;28.15;;
79646;SDS011;69119;41.718;21.786;2024-01-30T07:27:01;42.35;;;28.55;;
79646;SDS011;69119;41.718;21.786;2024-01-30T07:29:27;30.55;;;20.48;;
79646;SDS011;69119;41.718;21.786;2024-01-30T07:31:53;20.45;;;13.43;;
79646;SDS011;69119;41.718;21.786;2024-01-30T07:34:19;6.50;;;4.80;;
79646;SDS011;69119;41.718;21.786;2024-01-30T07:36:45;9.48;;;4.88;;
79646;SDS011;69119;41.718;21.786;2024-01-30T07:39:12;8.52;;;4.82;;
79646;SDS011;69119;41.718;21.786;2024-01-30T07:41:38;7.72;;;4.80;;
79646;SDS011;69119;41.718;21.786;2024-01-30T07:44:04;7.85;;;4.30;;
79646;SDS011;69119;41.718;21.786;2024-01-30T07:46:30;9.43;;;6.65;;
79646;SDS011;69119;41.718;21.786;2024-01-30T07:48:56;11.77;;;6.70;;
79646;SDS011;69119;41.718;21.786;2024-01-30T07:51:22;10.73;;;5.95;;
79646;SDS011;69119;41.718;21.786;2024-01-30T07:53:48;15.30;;;10.48;;
79646;SDS011;69119;41.718;21.786;2024-01-30T07:56:15;13.00;;;9.18;;
79646;SDS011;69119;41.718;21.786;2024-01-30T07:58:41;10.30;;;5.95;;
79646;SDS011;69119;41.718;21.786;2024-01-30T08:01:07;11.80;;;7.72;;
79646;SDS011;69119;41.718;21.786;2024-01-30T08:03:33;6.78;;;4.85;;
79646;SDS011;69119;41.718;21.786;2024-01-30T08:05:59;9.82;;;6.47;;
79646;SDS011;69119;41.718;21.786;2024-01-30T08:08:25;9.63;;;6.50;;
79646;SDS011;69119;41.718;21.786;2024-01-30T08:10:52;13.82;;;7.68;;
79646;SDS011;69119;41.718;21.786;2024-01-30T08:13:18;14.80;;;10.52;;
79646;SDS011;69119;41.718;21.786;2024-01-30T08:15:44;11.73;;;6.85;;
79646;SDS011;69119;41.718;21.786;2024-01-30T08:18:10;12.48;;;7.80;;
79646;SDS011;69119;41.718;21.786;2024-01-30T08:20:36;15.52;;;9.57;;
79646;SDS011;69119;41.718;21.786;2024-01-30T08:23:02;13.15;;;8.40;;
79646;SDS011;69119;41.718;21.786;2024-01-30T08:25:28;12.73;;;7.57;;
79646;SDS011;69119;41.718;21.786;2024-01-30T08:27:55;11.43;;;7.13;;
79646;SDS011;69119;41.718;21.786;2024-01-30T08:30:22;15.60;;;7.72;;
79646;SDS011;69119;41.718;21.786;2024-01-30T08:32:48;8.93;;;5.68;;
79646;SDS011;69119;41.718;21.786;2024-01-30T08:35:14;8.05;;;5.47;;
79646;SDS011;69119;41.718;21.786;2024-01-30T08:37:41;21.80;;;9.77;;
79646;SDS011;69119;41.718;21.786;2024-01-30T08:40:07;14.98;;;6.65;;
79646;SDS011;69119;41.718;21.786;2024-01-30T08:42:33;15.25;;;6.97;;
79646;SDS011;69119;41.718;21.786;2024-01-30T08:44:59;12.07;;;8.35;;
79646;SDS011;69119;41.718;21.786;2024-01-30T08:47:26;6.90;;;4.57;;
79646;SDS011;69119;41.718;21.786;2024-01-30T08:49:52;7.32;;;4.75;;
79646;SDS011;69119;41.718;21.786;2024-01-30T08:52:18;8.05;;;5.22;;
79646;SDS011;69119;41.718;21.786;2024-01-30T08:54:44;6.43;;;3.22;;
79646;SDS011;69119;41.718;21.786;2024-01-30T08:57:10;6.88;;;3.80;;
79646;SDS011;69119;41.718;21.786;2024-01-30T08:59:36;8.73;;;5.47;;
79646;SDS011;69119;41.718;21.786;2024-01-30T09:02:02;8.52;;;5.82;;
79646;SDS011;69119;41.718;21.786;2024-01-30T09:06:55;7.15;;;4.05;;
79646;SDS011;69119;41.718;21.786;2024-01-30T09:09:21;6.20;;;3.83;;
79646;SDS011;69119;41.718;21.786;2024-01-30T09:11:47;10.30;;;3.78;;
79646;SDS011;69119;41.718;21.786;2024-01-30T09:14:14;6.72;;;4.60;;
79646;SDS011;69119;41.718;21.786;2024-01-30T09:16:40;6.70;;;2.75;;
79646;SDS011;69119;41.718;21.786;2024-01-30T09:19:06;6.60;;;4.57;;
79646;SDS011;69119;41.718;21.786;2024-01-30T09:21:32;9.50;;;6.07;;
79646;SDS011;69119;41.718;21.786;2024-01-30T09:24:02;8.48;;;6.03;;
79646;SDS011;69119;41.718;21.786;2024-01-30T09:26:31;6.43;;;4.35;;
79646;SDS011;69119;41.718;21.786;2024-01-30T09:28:57;6.43;;;3.28;;
79646;SDS011;69119;41.718;21.786;2024-01-30T09:31:24;6.50;;;5.43;;
79646;SDS011;69119;41.718;21.786;2024-01-30T09:33:50;8.80;;;4.18;;
79646;SDS011;69119;41.718;21.786;2024-01-30T09:36:19;6.68;;;4.18;;
79646;SDS011;69119;41.718;21.786;2024-01-30T09:41:11;10.90;;;6.82;;
79646;SDS011;69119;41.718;21.786;2024-01-30T09:43:37;8.80;;;6.10;;
79646;SDS011;69119;41.718;21.786;2024-01-30T09:46:04;8.75;;;3.78;;
79646;SDS011;69119;41.718;21.786;2024-01-30T09:48:31;7.13;;;4.18;;
79646;SDS011;69119;41.718;21.786;2024-01-30T09:50:58;6.88;;;5.18;;
79646;SDS011;69119;41.718;21.786;2024-01-30T09:53:24;6.88;;;3.58;;
79646;SDS011;69119;41.718;21.786;2024-01-30T09:55:50;9.95;;;6.45;;
79646;SDS011;69119;41.718;21.786;2024-01-30T09:58:16;6.78;;;4.32;;
79646;SDS011;69119;41.718;21.786;2024-01-30T10:00:43;7.43;;;4.15;;
79646;SDS011;69119;41.718;21.786;2024-01-30T10:03:09;9.25;;;4.93;;
79646;SDS011;69119;41.718;21.786;2024-01-30T10:05:35;7.85;;;4.40;;
79646;SDS011;69119;41.718;21.786;2024-01-30T10:08:07;7.18;;;4.72;;
79646;SDS011;69119;41.718;21.786;2024-01-30T10:10:34;7.32;;;4.35;;
79646;SDS011;69119;41.718;21.786;2024-01-30T10:13:01;5.75;;;3.70;;
79646;SDS011;69119;41.718;21.786;2024-01-30T10:15:28;5.78;;;3.75;;
79646;SDS011;69119;41.718;21.786;2024-01-30T10:17:54;6.10;;;3.13;;
79646;SDS011;69119;41.718;21.786;2024-01-30T10:20:20;5.43;;;2.33;;
79646;SDS011;69119;41.718;21.786;2024-01-30T10:22:47;4.55;;;2.47;;
79646;SDS011;69119;41.718;21.786;2024-01-30T10:25:14;4.65;;;2.85;;
79646;SDS011;69119;41.718;21.786;2024-01-30T10:27:41;8.20;;;3.47;;
79646;SDS011;69119;41.718;21.786;2024-01-30T10:30:07;6.25;;;3.72;;
79646;SDS011;69119;41.718;21.786;2024-01-30T10:32:34;5.05;;;2.58;;
79646;SDS011;69119;41.718;21.786;2024-01-30T10:35:00;4.70;;;2.65;;
79646;SDS011;69119;41.718;21.786;2024-01-30T10:37:29;5.68;;;3.38;;
79646;SDS011;69119;41.718;21.786;2024-01-30T10:39:57;6.68;;;3.42;;
79646;SDS011;69119;41.718;21.786;2024-01-30T10:42:28;7.55;;;3.88;;
79646;SDS011;69119;41.718;21.786;2024-01-30T10:47:26;6.30;;;4.38;;
79646;SDS011;69119;41.718;21.786;2024-01-30T10:49:53;6.38;;;2.72;;
79646;SDS011;69119;41.718;21.786;2024-01-30T10:52:20;6.30;;;3.67;;
79646;SDS011;69119;41.718;21.786;2024-01-30T10:54:46;6.25;;;4.10;;
79646;SDS011;69119;41.718;21.786;2024-01-30T10:57:12;5.72;;;3.25;;
79646;SDS011;69119;41.718;21.786;2024-01-30T11:02:05;6.38;;;2.83;;
79646;SDS011;69119;41.718;21.786;2024-01-30T11:04:37;6.80;;;4.35;;
79646;SDS011;69119;41.718;21.786;2024-01-30T11:09:48;6.03;;;3.78;;
79646;SDS011;69119;41.718;21.786;2024-01-30T11:14:40;8.60;;;3.92;;
79646;SDS011;69119;41.718;21.786;2024-01-30T11:17:08;5.78;;;2.85;;
79646;SDS011;69119;41.718;21.786;2024-01-30T11:19:37;6.53;;;4.10;;
79646;SDS011;69119;41.718;21.786;2024-01-30T11:24:30;5.55;;;3.53;;
79646;SDS011;69119;41.718;21.786;2024-01-30T11:26:56;7.80;;;3.97;;
79646;SDS011;69119;41.718;21.786;2024-01-30T11:31:52;7.13;;;3.72;;
79646;SDS011;69119;41.718;21.786;2024-01-30T11:34:19;5.82;;;2.92;;
79646;SDS011;69119;41.718;21.786;2024-01-30T11:36:48;6.90;;;3.90;;
79646;SDS011;69119;41.718;21.786;2024-01-30T11:39:18;6.15;;;3.28;;
79646;SDS011;69119;41.718;21.786;2024-01-30T11:41:46;6.47;;;4.03;;
79646;SDS011;69119;41.718;21.786;2024-01-30T11:44:13;6.10;;;3.65;;
79646;SDS011;69119;41.718;21.786;2024-01-30T11:46:41;8.10;;;4.15;;
79646;SDS011;69119;41.718;21.786;2024-01-30T11:49:07;6.63;;;4.13;;
79646;SDS011;69119;41.718;21.786;2024-01-30T11:51:33;6.43;;;3.58;;
79646;SDS011;69119;41.718;21.786;2024-01-30T11:53:59;6.53;;;3.97;;
79646;SDS011;69119;41.718;21.786;2024-01-30T11:56:25;8.55;;;5.68;;
79646;SDS011;69119;41.718;21.786;2024-01-30T11:58:52;7.85;;;5.40;;
79646;SDS011;69119;41.718;21.786;2024-01-30T12:01:18;6.55;;;3.55;;
79646;SDS011;69119;41.718;21.786;2024-01-30T12:03:50;7.20;;;4.20;;
79646;SDS011;69119;41.718;21.786;2024-01-30T12:06:17;8.07;;;3.97;;
79646;SDS011;69119;41.718;21.786;2024-01-30T12:08:54;6.50;;;3.25;;
79646;SDS011;69119;41.718;21.786;2024-01-30T12:11:21;6.45;;;2.40;;
79646;SDS011;69119;41.718;21.786;2024-01-30T12:13:47;8.15;;;4.63;;
79646;SDS011;69119;41.718;21.786;2024-01-30T12:16:13;11.50;;;6.45;;
79646;SDS011;69119;41.718;21.786;2024-01-30T12:21:05;8.63;;;5.15;;
79646;SDS011;69119;41.718;21.786;2024-01-30T12:23:34;7.22;;;3.08;;
79646;SDS011;69119;41.718;21.786;2024-01-30T12:26:01;8.43;;;5.25;;
79646;SDS011;69119;41.718;21.786;2024-01-30T12:28:29;6.13;;;3.70;;
79646;SDS011;69119;41.718;21.786;2024-01-30T12:31:01;6.60;;;3.45;;
79646;SDS011;69119;41.718;21.786;2024-01-30T12:33:28;10.52;;;6.47;;
79646;SDS011;69119;41.718;21.786;2024-01-30T12:35:55;7.82;;;4.88;;
79646;SDS011;69119;41.718;21.786;2024-01-30T12:38:21;12.13;;;5.05;;
79646;SDS011;69119;41.718;21.786;2024-01-30T12:40:48;9.13;;;6.00;;
79646;SDS011;69119;41.718;21.786;2024-01-30T12:43:14;7.60;;;4.00;;
79646;SDS011;69119;41.718;21.786;2024-01-30T12:45:41;7.40;;;4.53;;
79646;SDS011;69119;41.718;21.786;2024-01-30T12:48:08;9.02;;;6.28;;
79646;SDS011;69119;41.718;21.786;2024-01-30T12:50:34;7.97;;;4.85;;
79646;SDS011;69119;41.718;21.786;2024-01-30T12:53:00;9.70;;;5.25;;
79646;SDS011;69119;41.718;21.786;2024-01-30T12:55:26;10.68;;;6.05;;
79646;SDS011;69119;41.718;21.786;2024-01-30T12:57:54;8.43;;;4.95;;
79646;SDS011;69119;41.718;21.786;2024-01-30T13:00:20;8.98;;;5.82;;
79646;SDS011;69119;41.718;21.786;2024-01-30T13:02:47;7.43;;;5.28;;
79646;SDS011;69119;41.718;21.786;2024-01-30T13:05:13;7.50;;;5.25;;
79646;SDS011;69119;41.718;21.786;2024-01-30T13:07:39;7.38;;;4.40;;
79646;SDS011;69119;41.718;21.786;2024-01-30T13:10:06;6.15;;;3.78;;
79646;SDS011;69119;41.718;21.786;2024-01-30T13:12:32;8.50;;;4.72;;
79646;SDS011;69119;41.718;21.786;2024-01-30T13:17:26;9.70;;;6.00;;
79646;SDS011;69119;41.718;21.786;2024-01-30T13:19:52;7.13;;;4.45;;
79646;SDS011;69119;41.718;21.786;2024-01-30T13:22:20;8.20;;;5.20;;
79646;SDS011;69119;41.718;21.786;2024-01-30T13:24:49;7.65;;;5.20;;
79646;SDS011;69119;41.718;21.786;2024-01-30T13:29:42;8.77;;;6.15;;
79646;SDS011;69119;41.718;21.786;2024-01-30T13:32:08;8.27;;;4.65;;
79646;SDS011;69119;41.718;21.786;2024-01-30T13:34:34;9.60;;;5.65;;
79646;SDS011;69119;41.718;21.786;2024-01-30T13:37:00;8.02;;;5.68;;
79646;SDS011;69119;41.718;21.786;2024-01-30T13:39:26;7.40;;;4.10;;
79646;SDS011;69119;41.718;21.786;2024-01-30T13:41:54;5.45;;;3.10;;
79646;SDS011;69119;41.718;21.786;2024-01-30T13:44:20;8.60;;;4.50;;
79646;SDS011;69119;41.718;21.786;2024-01-30T13:46:46;8.43;;;5.03;;
79646;SDS011;69119;41.718;21.786;2024-01-30T13:49:12;8.35;;;4.22;;
79646;SDS011;69119;41.718;21.786;2024-01-30T13:51:38;10.10;;;5.90;;
79646;SDS011;69119;41.718;21.786;2024-01-30T13:54:05;10.43;;;6.25;;
79646;SDS011;69119;41.718;21.786;2024-01-30T13:56:31;11.18;;;6.05;;
79646;SDS011;69119;41.718;21.786;2024-01-30T13:58:57;9.80;;;5.05;;
79646;SDS011;69119;41.718;21.786;2024-01-30T14:01:23;6.95;;;3.25;;
79646;SDS011;69119;41.718;21.786;2024-01-30T14:03:49;9.85;;;4.90;;
79646;SDS011;69119;41.718;21.786;2024-01-30T14:06:16;9.35;;;5.25;;
79646;SDS011;69119;41.718;21.786;2024-01-30T14:08:42;9.52;;;6.18;;
79646;SDS011;69119;41.718;21.786;2024-01-30T14:11:08;11.10;;;6.93;;
79646;SDS011;69119;41.718;21.786;2024-01-30T14:13:34;7.75;;;5.28;;
79646;SDS011;69119;41.718;21.786;2024-01-30T14:16:00;8.52;;;3.67;;
79646;SDS011;69119;41.718;21.786;2024-01-30T14:18:27;7.00;;;3.60;;
79646;SDS011;69119;41.718;21.786;2024-01-30T14:20:53;7.38;;;3.83;;
79646;SDS011;69119;41.718;21.786;2024-01-30T14:23:19;9.95;;;5.55;;
79646;SDS011;69119;41.718;21.786;2024-01-30T14:25:46;9.90;;;4.93;;
79646;SDS011;69119;41.718;21.786;2024-01-30T14:28:12;8.52;;;4.05;;
79646;SDS011;69119;41.718;21.786;2024-01-30T14:30:38;7.43;;;4.22;;
79646;SDS011;69119;41.718;21.786;2024-01-30T14:33:05;9.88;;;6.72;;
79646;SDS011;69119;41.718;21.786;2024-01-30T14:35:32;12.38;;;5.00;;
79646;SDS011;69119;41.718;21.786;2024-01-30T14:37:59;13.52;;;8.57;;
79646;SDS011;69119;41.718;21.786;2024-01-30T14:40:25;7.32;;;4.50;;
79646;SDS011;69119;41.718;21.786;2024-01-30T14:42:51;7.70;;;3.10;;
79646;SDS011;69119;41.718;21.786;2024-01-30T14:45:17;9.48;;;4.70;;
79646;SDS011;69119;41.718;21.786;2024-01-30T14:47:43;8.82;;;3.60;;